Time;durP1;ratioP1;P1;durP2;ratioP2;P2;SDS_P1;SDS_P2;PMS_P1;PMS_P2;Temp;Humidity;BMP_temperature;BMP_pressure;BME280_temperature;BME280_humidity;BME280_pressure;Samples;Min_cycle;Max_cycle;Signal;HPM_P1;HPM_P2
2022/07/13 00:02:05;;;;;;;5.88;3.80;;;20.90;99.90;;;;;;5072788;28;20119;-71
2022/07/13 00:04:31;;;;;;;7.60;3.97;;;20.90;99.90;;;;;;5071550;28;20071;-71
2022/07/13 00:06:56;;;;;;;6.95;3.45;;;20.90;99.90;;;;;;5072827;28;20116;-71
2022/07/13 00:09:22;;;;;;;8.55;3.92;;;20.90;99.90;;;;;;5055145;28;20107;-71
2022/07/13 00:11:47;;;;;;;6.68;3.72;;;20.80;99.90;;;;;;5071819;28;20433;-71
2022/07/13 00:14:13;;;;;;;8.02;3.95;;;20.80;99.90;;;;;;5071727;28;20123;-71
2022/07/13 00:16:39;;;;;;;5.93;4.07;;;20.80;99.90;;;;;;5073024;28;20480;-72
2022/07/13 00:19:04;;;;;;;6.07;4.28;;;20.80;99.90;;;;;;5071379;28;20044;-71
2022/07/13 00:21:30;;;;;;;8.25;4.65;;;20.70;99.90;;;;;;5071440;28;20048;-71
2022/07/13 00:23:55;;;;;;;5.85;4.10;;;20.80;99.90;;;;;;5071312;28;20064;-71
2022/07/13 00:26:21;;;;;;;6.63;4.95;;;20.80;99.90;;;;;;5073012;28;20075;-72
2022/07/13 00:28:46;;;;;;;6.90;4.90;;;20.80;99.90;;;;;;5072905;28;20037;-71
2022/07/13 00:31:12;;;;;;;7.03;5.18;;;20.90;99.90;;;;;;5071693;28;20459;-71
2022/07/13 00:33:38;;;;;;;7.63;5.20;;;20.90;99.90;;;;;;5071920;28;20094;-71
2022/07/13 00:36:03;;;;;;;8.93;5.25;;;20.80;99.90;;;;;;5073088;28;20043;-71
2022/07/13 00:38:29;;;;;;;8.10;5.38;;;20.80;99.90;;;;;;5071375;28;20416;-71
2022/07/13 00:40:54;;;;;;;8.27;5.05;;;20.80;99.90;;;;;;5072471;28;20047;-71
2022/07/13 00:43:20;;;;;;;10.43;5.28;;;20.80;99.90;;;;;;5073246;28;20071;-71
2022/07/13 00:45:45;;;;;;;8.35;4.93;;;20.90;99.90;;;;;;5072463;28;20072;-71
2022/07/13 00:48:12;;;;;;;9.95;5.45;;;20.90;99.90;;;;;;5072801;28;20036;-71
2022/07/13 00:50:38;;;;;;;7.10;5.50;;;20.90;99.90;;;;;;5071430;28;20040;-71
2022/07/13 00:53:04;;;;;;;8.32;5.43;;;20.90;99.90;;;;;;5071088;28;20409;-71
2022/07/13 00:55:32;;;;;;;7.70;5.32;;;20.90;99.90;;;;;;5073099;28;20094;-71
2022/07/13 00:57:58;;;;;;;8.25;5.45;;;20.90;99.90;;;;;;5074728;28;20052;-71
2022/07/13 01:00:24;;;;;;;6.45;5.85;;;21.00;99.90;;;;;;5074595;28;20051;-71
2022/07/13 01:02:50;;;;;;;9.73;6.50;;;21.00;99.90;;;;;;5074518;28;20040;-71
2022/07/13 01:05:16;;;;;;;6.45;5.30;;;21.00;99.90;;;;;;5074517;28;20048;-71
2022/07/13 01:07:42;;;;;;;8.48;5.50;;;21.00;99.90;;;;;;5074507;28;20076;-71
2022/07/13 01:10:09;;;;;;;9.02;5.88;;;21.00;99.90;;;;;;5075748;28;20060;-71
2022/07/13 01:12:36;;;;;;;8.35;5.90;;;21.10;99.90;;;;;;5074600;28;20098;-71
2022/07/13 01:15:03;;;;;;;6.68;5.78;;;21.10;99.90;;;;;;5074385;28;20044;-71
2022/07/13 01:17:30;;;;;;;7.78;5.75;;;21.10;99.90;;;;;;5074368;28;20497;-71
2022/07/13 01:19:57;;;;;;;8.20;5.65;;;21.10;99.90;;;;;;5074265;28;20048;-71
2022/07/13 01:22:25;;;;;;;8.68;6.10;;;21.10;99.90;;;;;;5075327;28;20068;-71
2022/07/13 01:24:52;;;;;;;8.25;5.72;;;21.10;99.90;;;;;;5075305;28;20051;-71
2022/07/13 01:27:18;;;;;;;9.85;5.63;;;21.10;99.90;;;;;;5057760;28;20497;-71
2022/07/13 01:29:44;;;;;;;9.73;6.47;;;21.10;99.90;;;;;;5057359;28;20075;-71
2022/07/13 01:32:10;;;;;;;7.78;6.15;;;21.10;99.90;;;;;;5074226;28;20048;-71
2022/07/13 01:34:35;;;;;;;7.72;5.95;;;21.00;99.90;;;;;;5073995;28;20049;-71
2022/07/13 01:37:02;;;;;;;8.75;5.85;;;21.00;99.90;;;;;;5073934;28;20067;-72
2022/07/13 01:39:28;;;;;;;11.55;6.63;;;21.00;99.90;;;;;;5057451;28;20093;-71
2022/07/13 01:41:53;;;;;;;9.77;6.25;;;20.90;99.90;;;;;;5057183;28;20087;-71
2022/07/13 01:44:19;;;;;;;8.70;6.47;;;20.90;99.90;;;;;;5074995;28;20036;-71
2022/07/13 01:46:44;;;;;;;9.50;6.95;;;20.80;99.90;;;;;;5073862;28;20082;-71
2022/07/13 01:49:10;;;;;;;9.00;6.72;;;20.70;99.90;;;;;;5057360;28;20044;-71
2022/07/13 01:51:36;;;;;;;8.02;6.10;;;20.70;99.90;;;;;;5075157;28;20481;-71
2022/07/13 01:54:02;;;;;;;8.45;6.55;;;20.70;99.90;;;;;;5073835;28;20044;-71
2022/07/13 01:56:27;;;;;;;7.20;5.80;;;20.70;99.90;;;;;;5073554;28;20114;-71
2022/07/13 01:58:53;;;;;;;7.35;6.35;;;20.70;99.90;;;;;;5073864;28;20036;-71
2022/07/13 02:01:18;;;;;;;8.85;6.22;;;20.70;99.90;;;;;;5074947;28;20396;-71
2022/07/13 02:03:44;;;;;;;8.32;6.43;;;20.80;99.90;;;;;;5073594;28;20032;-71
2022/07/13 02:06:10;;;;;;;7.25;6.18;;;20.80;99.90;;;;;;5074247;28;20036;-71
2022/07/13 02:08:36;;;;;;;7.13;6.30;;;20.80;99.90;;;;;;5074323;28;20044;-71
2022/07/13 02:11:01;;;;;;;7.25;5.90;;;20.80;99.90;;;;;;5074878;28;20397;-71
2022/07/13 02:13:27;;;;;;;7.75;6.22;;;20.80;99.90;;;;;;5056833;28;20098;-71
2022/07/13 02:15:52;;;;;;;6.82;6.22;;;20.70;99.90;;;;;;5074700;28;20481;-71
2022/07/13 02:18:18;;;;;;;6.43;5.70;;;20.70;99.90;;;;;;5074436;28;20074;-71
2022/07/13 02:20:44;;;;;;;6.30;5.70;;;20.70;99.90;;;;;;5073195;28;20451;-71
2022/07/13 02:23:09;;;;;;;7.93;6.50;;;20.70;99.90;;;;;;5073246;28;20129;-71
2022/07/13 02:25:37;;;;;;;7.82;6.03;;;20.60;99.90;;;;;;5074443;28;20033;-71
2022/07/13 02:28:04;;;;;;;7.10;6.40;;;20.60;99.90;;;;;;5074494;28;20041;-71
2022/07/13 02:30:30;;;;;;;9.52;5.70;;;20.50;99.90;;;;;;5073162;28;20044;-71
2022/07/13 02:32:56;;;;;;;8.93;5.80;;;20.50;99.90;;;;;;5074273;28;20507;-71
2022/07/13 02:35:21;;;;;;;8.07;5.40;;;20.50;99.90;;;;;;5074298;28;20086;-71
2022/07/13 02:37:47;;;;;;;9.38;5.90;;;20.50;99.90;;;;;;5074256;28;20040;-71
2022/07/13 02:40:13;;;;;;;7.25;5.22;;;20.50;99.90;;;;;;5074129;28;20032;-71
2022/07/13 02:42:39;;;;;;;6.50;5.40;;;20.50;99.90;;;;;;5073819;28;20040;-71
2022/07/13 02:45:06;;;;;;;6.50;5.45;;;20.40;99.90;;;;;;5074115;28;20072;-71
2022/07/13 02:47:32;;;;;;;8.73;5.40;;;20.40;99.90;;;;;;5073869;28;20520;-71
2022/07/13 02:49:57;;;;;;;6.65;5.25;;;20.40;99.90;;;;;;5056078;28;20463;-71
2022/07/13 02:52:23;;;;;;;6.18;5.00;;;20.40;99.90;;;;;;5073845;28;20115;-71
2022/07/13 02:54:48;;;;;;;5.38;4.88;;;20.40;99.90;;;;;;5072490;28;20036;-71
2022/07/13 02:57:14;;;;;;;6.22;5.30;;;20.40;99.90;;;;;;5072429;28;20086;-71
2022/07/13 02:59:40;;;;;;;8.15;5.55;;;20.50;99.90;;;;;;5072486;28;20115;-71
2022/07/13 03:02:06;;;;;;;7.75;5.40;;;20.50;99.90;;;;;;5073557;28;20040;-71
2022/07/13 03:04:33;;;;;;;9.95;5.65;;;20.40;99.90;;;;;;5072148;28;20043;-71
2022/07/13 03:06:59;;;;;;;8.00;5.90;;;20.50;99.90;;;;;;5073828;28;20040;-71
2022/07/13 03:09:24;;;;;;;8.90;6.15;;;20.50;99.90;;;;;;5073709;28;20032;-71
2022/07/13 03:11:50;;;;;;;6.80;6.13;;;20.50;99.90;;;;;;5055784;28;20055;-71
2022/07/13 03:14:19;;;;;;;8.20;5.78;;;20.40;99.90;;;;;;5055699;28;20055;-71
2022/07/13 03:16:45;;;;;;;9.20;6.10;;;20.50;99.90;;;;;;5072236;28;20055;-71
2022/07/13 03:19:11;;;;;;;8.32;5.68;;;20.50;99.90;;;;;;5072512;28;20041;-71
2022/07/13 03:21:37;;;;;;;5.93;5.32;;;20.50;99.90;;;;;;5073464;28;20051;-71
2022/07/13 03:24:03;;;;;;;7.22;5.28;;;20.40;99.90;;;;;;5072005;28;20075;-71
2022/07/13 03:26:29;;;;;;;5.95;5.05;;;20.50;99.90;;;;;;5072110;28;20043;-71
2022/07/13 03:28:55;;;;;;;7.13;5.45;;;20.50;99.90;;;;;;5073494;28;20040;-71
2022/07/13 03:31:20;;;;;;;6.43;5.13;;;20.50;99.90;;;;;;5072280;28;20106;-71
2022/07/13 03:33:46;;;;;;;5.85;5.25;;;20.50;99.90;;;;;;5073386;28;20396;-71
2022/07/13 03:36:12;;;;;;;7.65;5.88;;;20.60;99.90;;;;;;5055501;28;20044;-72
2022/07/13 03:38:38;;;;;;;9.60;6.32;;;20.50;99.90;;;;;;5073368;28;20032;-71
2022/07/13 03:41:04;;;;;;;8.43;6.88;;;20.60;99.90;;;;;;5071866;28;20067;-71
2022/07/13 03:43:29;;;;;;;8.57;5.47;;;20.60;99.90;;;;;;5071714;28;20138;-71
2022/07/13 03:45:55;;;;;;;7.63;6.03;;;20.60;99.90;;;;;;5072054;28;20047;-71
2022/07/13 03:48:20;;;;;;;7.47;6.75;;;20.60;99.90;;;;;;5072040;28;20500;-71
2022/07/13 03:50:47;;;;;;;9.60;6.75;;;20.50;99.90;;;;;;5072026;28;20053;-71
2022/07/13 03:53:13;;;;;;;11.68;6.30;;;20.50;99.90;;;;;;5073455;28;20036;-71
2022/07/13 03:55:39;;;;;;;7.97;7.15;;;20.50;99.90;;;;;;5071775;28;20037;-71
2022/07/13 03:58:05;;;;;;;9.63;6.00;;;20.50;99.90;;;;;;5072937;28;20079;-71
2022/07/13 04:00:32;;;;;;;9.40;6.13;;;20.50;99.90;;;;;;5055198;28;20072;-71
2022/07/13 04:02:57;;;;;;;7.78;6.15;;;20.50;99.90;;;;;;5073120;28;20033;-71
2022/07/13 04:05:24;;;;;;;8.40;5.68;;;20.50;99.90;;;;;;5071611;28;20036;-71
2022/07/13 04:07:50;;;;;;;9.27;5.65;;;20.60;99.90;;;;;;5055023;28;20049;-71
2022/07/13 04:10:18;;;;;;;6.68;5.95;;;20.50;99.90;;;;;;5071572;28;20037;-72
2022/07/13 04:12:44;;;;;;;9.13;5.70;;;20.60;99.90;;;;;;5055263;28;20064;-71
2022/07/13 04:15:10;;;;;;;10.43;6.22;;;20.60;99.90;;;;;;5054847;28;20382;-71
2022/07/13 04:17:36;;;;;;;9.15;6.15;;;20.60;99.90;;;;;;5072788;28;20033;-71
2022/07/13 04:20:01;;;;;;;9.00;6.20;;;20.60;99.90;;;;;;5072694;28;20037;-71
2022/07/13 04:22:27;;;;;;;8.23;5.88;;;20.60;99.90;;;;;;5071655;28;20040;-71
2022/07/13 04:24:53;;;;;;;8.15;6.00;;;20.60;99.90;;;;;;5071413;28;20041;-71
2022/07/13 04:27:18;;;;;;;9.13;5.85;;;20.50;99.90;;;;;;5072866;28;20066;-71
2022/07/13 04:29:44;;;;;;;10.18;6.10;;;20.50;99.90;;;;;;5072208;28;20036;-71
2022/07/13 04:32:09;;;;;;;8.10;5.20;;;20.60;99.90;;;;;;5076614;28;20040;-71
2022/07/13 04:34:35;;;;;;;9.40;5.65;;;20.50;99.90;;;;;;5076472;28;20049;-71
2022/07/13 04:37:00;;;;;;;8.27;6.07;;;20.60;99.90;;;;;;5074952;28;20040;-71
2022/07/13 04:39:26;;;;;;;8.63;5.18;;;20.60;99.90;;;;;;5076490;28;20033;-71
2022/07/13 04:41:51;;;;;;;6.22;5.10;;;20.60;99.90;;;;;;5076349;28;20072;-71
2022/07/13 04:44:17;;;;;;;6.55;5.30;;;20.60;99.90;;;;;;5075945;28;20044;-71
2022/07/13 04:46:43;;;;;;;8.32;5.03;;;20.60;99.90;;;;;;5075022;28;20036;-71
2022/07/13 04:49:08;;;;;;;7.05;5.10;;;20.70;99.90;;;;;;5058370;28;20438;-71
2022/07/13 04:51:35;;;;;;;6.82;5.20;;;20.70;99.90;;;;;;5076230;28;20504;-71
2022/07/13 04:54:01;;;;;;;5.15;4.53;;;20.70;99.90;;;;;;5076152;28;20094;-71
2022/07/13 04:56:27;;;;;;;4.82;4.25;;;20.70;99.90;;;;;;5075386;28;20036;-71
2022/07/13 04:58:53;;;;;;;6.10;4.20;;;20.80;99.90;;;;;;5058318;28;20549;-71
2022/07/13 05:01:19;;;;;;;8.25;4.80;;;20.80;99.90;;;;;;5074564;28;20052;-71
2022/07/13 05:03:44;;;;;;;7.57;4.20;;;20.80;99.90;;;;;;5074889;28;20037;-71
2022/07/13 05:06:10;;;;;;;5.13;4.05;;;20.90;99.90;;;;;;5074831;28;20028;-71
2022/07/13 05:08:35;;;;;;;5.45;4.35;;;20.90;99.90;;;;;;5074519;28;20052;-71
2022/07/13 05:11:01;;;;;;;5.13;4.10;;;20.90;99.90;;;;;;5074752;28;20105;-71
2022/07/13 05:13:27;;;;;;;5.57;4.07;;;20.90;99.90;;;;;;5074342;28;20489;-71
2022/07/13 05:15:52;;;;;;;8.90;3.97;;;21.00;99.90;;;;;;5074417;28;20056;-71
2022/07/13 05:18:19;;;;;;;6.13;4.03;;;21.00;99.90;;;;;;5074461;28;20123;-71
2022/07/13 05:20:44;;;;;;;4.45;4.05;;;20.90;99.90;;;;;;5075438;28;20130;-71
2022/07/13 05:23:10;;;;;;;7.78;4.00;;;20.90;99.90;;;;;;5074417;28;20485;-71
2022/07/13 05:25:35;;;;;;;5.05;4.05;;;21.00;99.90;;;;;;5075752;28;20033;-71
2022/07/13 05:28:03;;;;;;;5.50;4.10;;;21.00;99.90;;;;;;5075662;28;20511;-70
2022/07/13 05:30:29;;;;;;;5.45;3.90;;;21.00;99.90;;;;;;5074125;28;20444;-71
2022/07/13 05:32:55;;;;;;;4.95;4.00;;;21.10;99.90;;;;;;5057703;28;20051;-72
2022/07/13 05:35:21;;;;;;;5.13;3.75;;;21.10;99.90;;;;;;5057686;28;20040;-71
2022/07/13 05:37:47;;;;;;;6.25;4.15;;;21.10;99.90;;;;;;5075614;28;20048;-71
2022/07/13 05:40:13;;;;;;;5.68;4.03;;;21.20;99.90;;;;;;5073870;28;20079;-71
2022/07/13 05:42:39;;;;;;;4.35;3.72;;;21.20;99.90;;;;;;5056390;28;20079;-71
2022/07/13 05:45:05;;;;;;;6.50;4.00;;;21.30;99.90;;;;;;5074121;28;20128;-71
2022/07/13 05:47:31;;;;;;;4.65;3.92;;;21.40;99.90;;;;;;5075322;28;20037;-71
2022/07/13 05:49:57;;;;;;;7.03;4.07;;;21.40;99.90;;;;;;5075020;28;20043;-71
2022/07/13 05:52:24;;;;;;;5.40;3.67;;;21.50;99.90;;;;;;5075217;28;20036;-71
2022/07/13 05:54:50;;;;;;;6.47;3.85;;;21.50;99.90;;;;;;5075555;28;20078;-71
2022/07/13 05:57:15;;;;;;;4.45;3.55;;;21.60;99.90;;;;;;5075286;28;20489;-71
2022/07/13 05:59:41;;;;;;;6.28;3.55;;;21.70;99.90;;;;;;5075134;28;20048;-72
2022/07/13 06:02:07;;;;;;;6.28;4.10;;;21.70;99.90;;;;;;5057111;28;20409;-72
2022/07/13 06:04:32;;;;;;;5.97;4.25;;;21.80;99.90;;;;;;5056846;28;20119;-72
2022/07/13 06:06:58;;;;;;;7.03;4.10;;;21.90;99.90;;;;;;5056990;28;20037;-72
2022/07/13 06:09:23;;;;;;;5.88;3.95;;;21.90;99.90;;;;;;5073745;28;20062;-72
2022/07/13 06:11:49;;;;;;;5.47;3.42;;;22.00;99.90;;;;;;5074905;28;20081;-72
2022/07/13 06:14:15;;;;;;;4.97;3.85;;;22.00;99.90;;;;;;5073296;28;20044;-71
2022/07/13 06:16:40;;;;;;;4.63;3.60;;;22.10;99.90;;;;;;5073591;28;20127;-71
2022/07/13 06:19:06;;;;;;;6.28;3.53;;;22.10;99.90;;;;;;5073404;28;20061;-71
2022/07/13 06:21:32;;;;;;;4.93;3.42;;;22.20;99.90;;;;;;5073264;28;20077;-71
2022/07/13 06:23:57;;;;;;;5.00;3.60;;;22.20;99.90;;;;;;5073276;28;20119;-70
2022/07/13 06:26:23;;;;;;;6.88;3.63;;;22.30;99.90;;;;;;5073034;28;20496;-70
2022/07/13 06:28:48;;;;;;;5.13;3.78;;;22.30;99.90;;;;;;5074515;28;20035;-70
2022/07/13 06:31:14;;;;;;;5.72;3.78;;;22.40;99.90;;;;;;5073132;28;20044;-70
2022/07/13 06:33:41;;;;;;;4.53;3.47;;;22.50;99.90;;;;;;5073109;28;20090;-71
2022/07/13 06:36:08;;;;;;;6.45;3.65;;;22.50;99.90;;;;;;5072741;28;20554;-70
2022/07/13 06:38:33;;;;;;;7.30;4.30;;;22.60;99.90;;;;;;5073954;28;20530;-70
2022/07/13 06:40:59;;;;;;;5.05;3.88;;;22.60;99.90;;;;;;5074210;28;20119;-70
2022/07/13 06:43:25;;;;;;;5.03;3.75;;;22.70;99.90;;;;;;5074055;28;20037;-70
2022/07/13 06:45:51;;;;;;;7.57;3.50;;;22.70;99.90;;;;;;5074106;28;20047;-71
2022/07/13 06:48:16;;;;;;;9.10;3.80;;;22.80;99.90;;;;;;5072570;28;20036;-70
2022/07/13 06:50:42;;;;;;;7.25;4.35;;;22.90;99.90;;;;;;5072799;28;20203;-70
2022/07/13 06:53:08;;;;;;;7.43;5.57;;;23.10;99.90;;;;;;5072373;28;20059;-71
2022/07/13 06:55:34;;;;;;;9.15;5.47;;;23.10;99.90;;;;;;5072768;28;20486;-71
2022/07/13 06:57:59;;;;;;;7.60;5.60;;;23.20;99.90;;;;;;5073636;28;20054;-71
2022/07/13 07:00:25;;;;;;;8.00;6.85;;;23.20;99.90;;;;;;5072520;28;20127;-71
2022/07/13 07:02:51;;;;;;;8.98;6.60;;;23.10;99.90;;;;;;5074322;28;20036;-71
2022/07/13 07:05:16;;;;;;;9.32;6.97;;;23.20;99.90;;;;;;5073745;28;20032;-71
2022/07/13 07:07:42;;;;;;;9.10;6.53;;;23.40;99.90;;;;;;5072286;28;20086;-71
2022/07/13 07:10:09;;;;;;;7.00;6.10;;;23.50;99.90;;;;;;5055843;28;20044;-71
2022/07/13 07:12:35;;;;;;;9.57;6.13;;;23.50;99.90;;;;;;5072145;28;20066;-71
2022/07/13 07:15:01;;;;;;;10.80;7.22;;;23.40;99.90;;;;;;5073354;28;20040;-71
2022/07/13 07:17:27;;;;;;;8.60;6.57;;;23.30;99.90;;;;;;5073350;28;20085;-70
2022/07/13 07:20:00;;;;;;;9.73;6.68;;;23.30;99.90;;;;;;5072330;28;20032;-71
2022/07/13 07:22:26;;;;;;;9.32;6.30;;;23.30;99.90;;;;;;5071899;28;20508;-71
2022/07/13 07:24:53;;;;;;;10.57;6.35;;;23.20;99.90;;;;;;5072287;28;20048;-71
2022/07/13 07:27:19;;;;;;;7.68;6.25;;;23.20;99.90;;;;;;5073230;28;20055;-71
2022/07/13 07:29:44;;;;;;;10.18;5.60;;;23.20;99.90;;;;;;5073158;28;20039;-71
2022/07/13 07:32:10;;;;;;;7.80;6.10;;;23.20;99.90;;;;;;5071918;28;20042;-71
2022/07/13 07:34:36;;;;;;;9.23;6.57;;;23.30;99.90;;;;;;5073444;28;20039;-71
2022/07/13 07:37:02;;;;;;;12.48;6.45;;;23.30;99.90;;;;;;5073515;28;20054;-71
2022/07/13 07:39:28;;;;;;;7.63;5.88;;;23.50;99.90;;;;;;5073330;28;20052;-71
2022/07/13 07:41:53;;;;;;;8.07;5.97;;;23.50;99.90;;;;;;5073229;28;20036;-71
2022/07/13 07:44:19;;;;;;;9.48;5.22;;;23.60;99.90;;;;;;5073220;28;20036;-71
2022/07/13 07:46:45;;;;;;;8.55;6.38;;;23.70;99.90;;;;;;5073295;28;20486;-71
2022/07/13 07:49:10;;;;;;;9.55;5.93;;;23.70;99.90;;;;;;5072866;28;20040;-71
2022/07/13 07:51:36;;;;;;;11.00;6.55;;;23.80;99.90;;;;;;5073156;28;20147;-71
2022/07/13 07:54:02;;;;;;;8.23;6.15;;;23.80;99.90;;;;;;5073147;28;20048;-71
2022/07/13 07:56:27;;;;;;;9.65;5.70;;;23.80;99.90;;;;;;5073266;28;20071;-71
2022/07/13 07:58:53;;;;;;;8.55;5.70;;;23.90;99.90;;;;;;5072052;28;20037;-71
2022/07/13 08:01:19;;;;;;;9.77;6.15;;;24.10;99.90;;;;;;5071605;28;20072;-70
2022/07/13 08:03:44;;;;;;;8.60;6.20;;;24.10;99.90;;;;;;5072746;28;20055;-70
2022/07/13 08:06:11;;;;;;;7.50;5.60;;;24.30;99.90;;;;;;5075081;28;20036;-71
2022/07/13 08:08:37;;;;;;;12.40;6.70;;;24.40;99.90;;;;;;5077188;28;20029;-72
2022/07/13 08:11:03;;;;;;;7.93;5.68;;;24.40;99.90;;;;;;5059227;28;20459;-72
2022/07/13 08:13:30;;;;;;;9.65;6.28;;;24.60;99.90;;;;;;5075778;28;20408;-72
2022/07/13 08:15:55;;;;;;;9.32;6.60;;;24.70;99.90;;;;;;5075732;28;20041;-72
2022/07/13 08:18:21;;;;;;;10.40;6.22;;;24.90;99.90;;;;;;5075475;28;20534;-72
2022/07/13 08:20:47;;;;;;;8.55;5.85;;;24.90;99.90;;;;;;5075645;28;20111;-72
2022/07/13 08:25:56;;;;;;;7.72;6.38;;;25.10;99.90;;;;;;5075653;28;20075;-72
2022/07/13 08:28:23;;;;;;;11.35;6.07;;;25.10;99.90;;;;;;5076104;28;20493;-72
2022/07/13 08:30:48;;;;;;;11.55;6.53;;;25.20;99.90;;;;;;5075457;28;20136;-72
2022/07/13 08:33:14;;;;;;;8.23;5.90;;;25.30;99.90;;;;;;5075063;28;20119;-72
2022/07/13 08:38:35;;;;;;;8.15;5.72;;;25.60;99.90;;;;;;5075043;28;20044;-72
2022/07/13 08:41:02;;;;;;;9.77;6.47;;;25.60;99.90;;;;;;5074953;28;20451;-72
2022/07/13 08:43:28;;;;;;;9.70;6.72;;;25.70;99.90;;;;;;5075158;28;20045;-72
2022/07/13 08:45:54;;;;;;;8.48;6.13;;;25.90;99.90;;;;;;5058464;28;20074;-71
2022/07/13 08:48:31;;;;;;;7.85;5.40;;;25.90;99.90;;;;;;5074853;28;20043;-71
2022/07/13 08:50:57;;;;;;;8.35;4.95;;;26.00;99.90;;;;;;5074856;28;20036;-72
2022/07/13 08:53:23;;;;;;;7.35;5.38;;;26.10;99.90;;;;;;5074663;28;20041;-72
2022/07/13 08:55:50;;;;;;;11.15;4.63;;;26.30;99.90;;;;;;5074957;28;20135;-72
2022/07/13 08:58:17;;;;;;;5.68;4.40;;;26.40;99.90;;;;;;5074926;28;20469;-72
2022/07/13 09:00:42;;;;;;;7.40;3.72;;;26.50;99.90;;;;;;5057878;28;20048;-72
2022/07/13 09:03:09;;;;;;;6.65;3.55;;;26.60;99.90;;;;;;5058099;28;20105;-72
2022/07/13 09:05:35;;;;;;;7.60;3.97;;;26.70;99.90;;;;;;5074582;28;20048;-72
2022/07/13 09:08:02;;;;;;;5.95;3.92;;;26.90;99.90;;;;;;5074775;28;20035;-72
2022/07/13 09:10:28;;;;;;;7.28;3.90;;;26.90;99.90;;;;;;5074486;28;20122;-72
2022/07/13 09:12:53;;;;;;;6.32;3.35;;;27.00;99.90;;;;;;5074625;28;20102;-72
2022/07/13 09:15:19;;;;;;;6.22;4.00;;;27.20;99.90;;;;;;5057936;28;20485;-72
2022/07/13 09:17:45;;;;;;;7.65;4.10;;;27.20;99.90;;;;;;5056319;28;20522;-73
2022/07/13 09:20:10;;;;;;;7.50;3.78;;;27.30;99.90;;;;;;5057949;28;20028;-73
2022/07/13 09:22:49;;;;;;;7.43;3.60;;;27.30;99.90;;;;;;5057449;28;20454;-73
2022/07/13 09:25:28;;;;;;;7.70;3.35;;;27.40;99.90;;;;;;5074238;28;20040;-72
2022/07/13 09:27:55;;;;;;;7.72;3.47;;;27.40;99.90;;;;;;5074184;28;20037;-72
2022/07/13 09:30:28;;;;;;;7.78;3.33;;;27.40;99.90;;;;;;5074137;28;20445;-72
2022/07/13 09:32:55;;;;;;;6.68;3.75;;;27.50;99.90;;;;;;5057548;28;20099;-72
2022/07/13 09:35:40;;;;;;;5.00;2.95;;;27.60;99.20;;;;;;5074273;28;20063;-72
2022/07/13 09:38:05;;;;;;;8.00;3.13;;;27.60;97.50;;;;;;5057304;28;20076;-72
2022/07/13 09:40:31;;;;;;;7.63;3.05;;;27.70;99.90;;;;;;5074056;28;20075;-72
2022/07/13 09:48:26;;;;;;;6.38;2.78;;;28.30;99.50;;;;;;5073826;28;20040;-72
2022/07/13 09:50:54;;;;;;;8.07;2.67;;;28.50;96.70;;;;;;5057333;28;20041;-72
2022/07/13 09:53:24;;;;;;;4.70;2.60;;;28.60;94.50;;;;;;5073657;28;20082;-72
2022/07/13 09:55:51;;;;;;;4.28;2.20;;;28.70;95.20;;;;;;5073805;28;20044;-72
2022/07/13 09:58:22;;;;;;;5.78;2.70;;;28.80;95.20;;;;;;5073882;28;20040;-73
2022/07/13 10:00:48;;;;;;;3.47;1.90;;;29.00;93.40;;;;;;5073508;28;20048;-72
2022/07/13 10:03:14;;;;;;;6.22;2.00;;;29.10;92.80;;;;;;5073643;28;20041;-72
2022/07/13 10:05:42;;;;;;;3.20;2.22;;;29.20;91.60;;;;;;5073731;28;20044;-72
2022/07/13 10:08:08;;;;;;;3.58;1.63;;;29.30;86.00;;;;;;5073402;28;20072;-72
2022/07/13 10:10:34;;;;;;;4.35;1.77;;;29.30;89.30;;;;;;5073344;28;20072;-72
2022/07/13 10:13:05;;;;;;;5.03;1.80;;;29.40;87.00;;;;;;5073562;28;20051;-72
2022/07/13 10:15:31;;;;;;;3.38;1.67;;;29.50;80.00;;;;;;5073259;28;20052;-71
2022/07/13 10:17:59;;;;;;;4.55;1.85;;;29.60;76.80;;;;;;5072997;28;20040;-70
2022/07/13 10:20:26;;;;;;;5.20;1.75;;;29.50;71.20;;;;;;5073746;28;20056;-71
2022/07/13 10:22:52;;;;;;;3.55;1.50;;;29.60;76.30;;;;;;5073267;28;20044;-71
2022/07/13 10:25:18;;;;;;;4.05;1.70;;;29.60;72.90;;;;;;5074309;28;20070;-71
2022/07/13 10:27:44;;;;;;;3.85;1.45;;;29.70;72.20;;;;;;5072638;28;20037;-72
2022/07/13 10:30:19;;;;;;;3.88;1.60;;;29.80;72.90;;;;;;5056326;28;20037;-72
2022/07/13 10:32:46;;;;;;;2.85;1.60;;;29.90;68.50;;;;;;5072837;28;20527;-72
2022/07/13 10:35:16;;;;;;;4.45;1.73;;;30.00;66.40;;;;;;5056524;28;20099;-72
2022/07/13 10:38:00;;;;;;;4.63;1.77;;;30.10;66.80;;;;;;5057256;28;20101;-72
2022/07/13 10:40:27;;;;;;;3.60;1.60;;;30.10;63.70;;;;;;5072648;28;20037;-72
2022/07/13 10:42:53;;;;;;;4.40;1.52;;;30.10;64.70;;;;;;5072838;28;20071;-72
2022/07/13 10:45:48;;;;;;;4.68;1.70;;;30.20;62.50;;;;;;5072903;28;20485;-72
2022/07/13 10:48:17;;;;;;;5.25;1.50;;;30.30;60.00;;;;;;5056188;28;20044;-72
2022/07/13 10:50:48;;;;;;;3.78;1.40;;;30.20;60.30;;;;;;5072531;28;20056;-72
2022/07/13 10:53:18;;;;;;;4.50;1.67;;;30.30;60.40;;;;;;5072913;28;20085;-72
2022/07/13 10:55:46;;;;;;;4.88;1.65;;;30.40;62.40;;;;;;5056876;28;20047;-72
2022/07/13 10:58:39;;;;;;;3.65;1.30;;;30.60;61.30;;;;;;5072413;28;20052;-72
2022/07/13 11:01:30;;;;;;;4.40;1.40;;;30.70;60.80;;;;;;5072506;28;20147;-72
2022/07/13 11:03:56;;;;;;;3.15;1.77;;;30.90;59.70;;;;;;5072848;28;20540;-72
2022/07/13 11:06:29;;;;;;;4.45;1.73;;;31.00;60.40;;;;;;5055666;28;20128;-71
2022/07/13 11:09:08;;;;;;;4.88;1.52;;;31.10;62.20;;;;;;5072426;28;20542;-71
2022/07/13 11:11:34;;;;;;;5.85;1.55;;;31.30;59.70;;;;;;5074026;28;20090;-71
2022/07/13 11:13:59;;;;;;;7.05;1.88;;;31.40;59.60;;;;;;5072104;28;20032;-71
2022/07/13 11:16:44;;;;;;;4.28;1.58;;;31.50;59.80;;;;;;5072176;28;20044;-71
2022/07/13 11:19:10;;;;;;;6.15;1.48;;;31.60;56.70;;;;;;5072287;28;20488;-71
2022/07/13 11:22:10;;;;;;;8.05;1.80;;;31.60;58.00;;;;;;5072018;28;20124;-72
2022/07/13 11:27:37;;;;;;;6.65;1.70;;;31.60;54.80;;;;;;5072292;28;20048;-72
2022/07/13 11:30:04;;;;;;;8.15;1.88;;;31.70;54.70;;;;;;5072050;28;20040;-72
2022/07/13 11:32:29;;;;;;;4.18;1.35;;;31.70;55.30;;;;;;5055171;28;20045;-71
2022/07/13 11:34:55;;;;;;;3.33;1.15;;;31.70;52.70;;;;;;5071913;28;20041;-71
2022/07/13 11:37:25;;;;;;;3.15;1.30;;;31.50;52.60;;;;;;5055734;28;20048;-71
2022/07/13 11:39:51;;;;;;;3.30;1.17;;;31.40;53.80;;;;;;5071194;28;20079;-71
2022/07/13 11:42:22;;;;;;;4.47;1.15;;;31.50;55.80;;;;;;5055047;28;20076;-71
2022/07/13 11:44:50;;;;;;;4.70;1.23;;;31.60;54.50;;;;;;5071902;28;20032;-71
2022/07/13 11:47:16;;;;;;;3.97;1.58;;;31.40;54.20;;;;;;5071853;28;20047;-71
2022/07/13 11:49:43;;;;;;;5.43;1.50;;;31.30;54.00;;;;;;5071743;28;20036;-71
2022/07/13 11:52:25;;;;;;;5.22;1.30;;;31.00;54.40;;;;;;5071978;28;20497;-72
2022/07/13 11:55:02;;;;;;;7.63;1.70;;;31.10;56.00;;;;;;5071824;28;20044;-71
2022/07/13 11:57:28;;;;;;;4.88;1.30;;;31.30;55.70;;;;;;5071705;28;20045;-71
2022/07/13 12:00:06;;;;;;;4.95;1.60;;;31.00;56.00;;;;;;5071646;28;20516;-72
2022/07/13 12:02:32;;;;;;;2.70;1.20;;;30.90;55.50;;;;;;5071491;28;20045;-71
2022/07/13 12:04:58;;;;;;;6.32;1.52;;;30.70;56.50;;;;;;5071630;28;20039;-71
2022/07/13 12:07:26;;;;;;;4.13;1.23;;;30.80;57.80;;;;;;5071841;28;20059;-72
2022/07/13 12:10:03;;;;;;;4.97;1.70;;;31.00;56.90;;;;;;5071522;28;20045;-72
2022/07/13 12:12:33;;;;;;;8.45;1.45;;;31.30;55.30;;;;;;5071711;28;20047;-72
2022/07/13 12:14:59;;;;;;;3.28;1.27;;;31.40;56.60;;;;;;5071475;28;20523;-72
2022/07/13 12:17:27;;;;;;;3.65;1.38;;;31.60;56.10;;;;;;5071555;28;20048;-72
2022/07/13 12:20:09;;;;;;;6.03;1.40;;;31.60;54.20;;;;;;5071413;28;20516;-72
2022/07/13 12:22:36;;;;;;;4.93;1.60;;;31.80;56.40;;;;;;5071404;28;20069;-72
2022/07/13 12:25:02;;;;;;;6.38;1.95;;;31.90;56.00;;;;;;5071672;28;20069;-72
2022/07/13 12:27:29;;;;;;;5.53;1.55;;;31.80;55.30;;;;;;5054635;28;20087;-72
2022/07/13 12:30:09;;;;;;;8.43;1.90;;;31.70;55.30;;;;;;5054657;28;20043;-72
2022/07/13 12:32:55;;;;;;;2.63;1.50;;;31.40;54.90;;;;;;5071207;28;20037;-72
2022/07/13 12:35:20;;;;;;;5.90;1.60;;;31.30;55.50;;;;;;5071262;28;20513;-72
2022/07/13 12:37:54;;;;;;;7.55;1.50;;;31.20;56.20;;;;;;5071278;28;20075;-72
2022/07/13 12:40:41;;;;;;;3.78;1.67;;;31.00;56.60;;;;;;5054560;28;20048;-72
2022/07/13 12:43:17;;;;;;;4.70;1.67;;;30.90;57.10;;;;;;5071157;28;20045;-72
2022/07/13 12:45:51;;;;;;;5.70;1.35;;;30.70;58.00;;;;;;5071188;28;20086;-72
2022/07/13 12:48:24;;;;;;;4.22;1.38;;;30.70;58.30;;;;;;5071160;28;20123;-72
2022/07/13 12:51:01;;;;;;;4.03;1.40;;;30.70;58.90;;;;;;5072008;28;20115;-72
2022/07/13 12:53:58;;;;;;;5.20;1.77;;;30.80;58.80;;;;;;5074947;28;20126;-72
2022/07/13 12:56:28;;;;;;;4.80;2.00;;;31.00;60.00;;;;;;5074942;28;20033;-72
2022/07/13 12:58:58;;;;;;;6.43;1.60;;;31.10;60.20;;;;;;5074629;28;20044;-72
2022/07/13 13:01:32;;;;;;;5.07;2.17;;;31.20;60.50;;;;;;5074539;28;20542;-72